Time;durP1;ratioP1;P1;durP2;ratioP2;P2;SDS_P1;SDS_P2;PMS_P1;PMS_P2;Temp;Humidity;BMP_temperature;BMP_pressure;BME280_temperature;BME280_humidity;BME280_pressure;Samples;Min_cycle;Max_cycle;Signal;HPM_P1;HPM_P2
2021/06/29 00:04:38;;;;;;;12.10;11.02;;;;;;;20.35;67.79;99742.78;10499113;28;20490;-72
2021/06/29 00:09:40;;;;;;;13.35;12.05;;;;;;;20.50;67.17;99732.81;10500379;28;20096;-71
2021/06/29 00:14:44;;;;;;;12.88;11.75;;;;;;;20.98;65.95;99721.88;10498796;28;20044;-72
2021/06/29 00:19:45;;;;;;;11.55;10.45;;;;;;;20.59;66.77;99734.75;10498650;28;20044;-72
2021/06/29 00:24:47;;;;;;;12.98;11.77;;;;;;;20.50;67.21;99747.00;10497604;28;20055;-72
2021/06/29 00:29:48;;;;;;;11.30;10.27;;;;;;;20.55;67.00;99744.81;10497851;28;20036;-71
2021/06/29 00:34:50;;;;;;;11.88;10.65;;;;;;;20.46;67.86;99752.66;10498912;28;20102;-71
2021/06/29 00:39:51;;;;;;;9.50;8.63;;;;;;;20.58;66.60;99741.88;10498179;28;20044;-71
2021/06/29 00:44:53;;;;;;;10.02;9.25;;;;;;;20.39;67.92;99742.44;10480586;28;20413;-73
2021/06/29 00:49:54;;;;;;;9.68;8.88;;;;;;;20.20;68.24;99749.31;10498192;28;20045;-72
2021/06/29 00:54:56;;;;;;;10.63;9.82;;;;;;;20.21;67.67;99749.19;10498330;28;20044;-72
2021/06/29 00:59:58;;;;;;;14.73;13.40;;;;;;;20.15;67.94;99747.84;10480406;28;20040;-71
2021/06/29 01:05:00;;;;;;;16.52;15.07;;;;;;;20.14;67.54;99743.50;10480102;28;20049;-72
2021/06/29 01:10:07;;;;;;;18.35;13.60;;;;;;;20.19;67.56;99735.13;10497932;28;20083;-72
2021/06/29 01:15:09;;;;;;;14.57;13.18;;;;;;;20.29;67.21;99729.94;10497711;28;20036;-71
2021/06/29 01:20:14;;;;;;;12.98;11.88;;;;;;;20.27;67.29;99730.03;10499160;28;20033;-72
2021/06/29 01:25:16;;;;;;;13.77;12.57;;;;;;;19.89;69.00;99733.81;10480108;28;20559;-71
2021/06/29 01:35:19;;;;;;;15.80;12.77;;;;;;;20.19;68.60;99755.59;10499910;28;20048;-72
2021/06/29 01:40:25;;;;;;;13.88;12.60;;;;;;;19.97;68.66;99769.75;10505573;28;20102;-71
2021/06/29 01:45:29;;;;;;;;;;;;;;;19.75;68.84;99760.66;10505998;28;20431;-71
2021/06/29 01:50:30;;;;;;;12.68;11.40;;;;;;;19.54;70.19;99759.56;10504633;28;20366;-71
2021/06/29 01:55:32;;;;;;;12.40;9.93;;;;;;;19.55;69.90;99772.75;10505021;28;20041;-72
2021/06/29 02:00:34;;;;;;;10.07;9.35;;;;;;;19.67;69.15;99770.19;10505553;28;20044;-72
2021/06/29 02:05:35;;;;;;;8.95;8.18;;;;;;;19.80;68.33;99765.66;10503913;28;20048;-71
2021/06/29 02:10:37;;;;;;;8.82;8.13;;;;;;;19.62;69.22;99767.88;10503573;28;20483;-71
2021/06/29 02:15:38;;;;;;;10.45;9.65;;;;;;;19.55;69.28;99762.09;10504456;28;20114;-72
2021/06/29 02:20:40;;;;;;;9.05;8.30;;;;;;;19.74;68.74;99755.44;10504633;28;20090;-73
2021/06/29 02:25:42;;;;;;;10.15;9.45;;;;;;;19.50;69.73;99774.06;10504561;28;20040;-73
2021/06/29 02:30:44;;;;;;;9.43;8.55;;;;;;;19.96;68.49;99776.88;10503994;28;20128;-72
2021/06/29 02:35:45;;;;;;;10.43;9.73;;;;;;;19.46;70.42;99769.91;10503186;28;20131;-73
2021/06/29 02:40:47;;;;;;;10.05;9.35;;;;;;;19.24;71.16;99759.94;10503384;28;20041;-72
2021/06/29 02:45:48;;;;;;;9.45;8.75;;;;;;;19.31;70.70;99759.41;10502737;28;20436;-73
2021/06/29 02:50:50;;;;;;;9.52;8.82;;;;;;;19.45;70.29;99760.22;10501272;28;20486;-72
2021/06/29 02:55:51;;;;;;;9.45;8.85;;;;;;;19.88;68.77;99764.13;10503077;28;20056;-72
2021/06/29 03:00:53;;;;;;;10.40;9.40;;;;;;;19.44;69.88;99763.84;10502847;28;20409;-72
2021/06/29 03:05:54;;;;;;;10.38;9.57;;;;;;;19.38;70.10;99757.13;10484155;28;20048;-71
2021/06/29 03:10:56;;;;;;;9.60;8.95;;;;;;;19.34;70.46;99759.16;10484098;28;20463;-72
2021/06/29 03:15:57;;;;;;;9.07;8.48;;;;;;;19.29;71.19;99765.78;10484424;28;20383;-72
2021/06/29 03:20:59;;;;;;;10.13;9.32;;;;;;;19.52;70.58;99780.13;10501666;28;20044;-71
2021/06/29 03:26:01;;;;;;;8.90;8.38;;;;;;;19.45;70.60;99765.56;10502268;28;20102;-72
2021/06/29 03:31:02;;;;;;;9.57;8.88;;;;;;;19.44;71.10;99756.72;10482981;28;20117;-73
2021/06/29 03:36:05;;;;;;;9.38;8.77;;;;;;;19.86;69.22;99767.88;10500898;28;20116;-73
2021/06/29 03:41:07;;;;;;;8.57;7.97;;;;;;;19.81;69.64;99768.22;10482370;28;20066;-71
2021/06/29 03:46:09;;;;;;;8.20;7.70;;;;;;;19.91;69.58;99768.38;10499890;28;20040;-73
2021/06/29 03:51:11;;;;;;;8.98;8.30;;;;;;;20.11;68.97;99773.06;10498053;28;20094;-73
2021/06/29 03:56:27;;;;;;;8.98;8.38;;;;;;;20.21;68.81;99778.56;10482320;28;20421;-73
2021/06/29 04:01:30;;;;;;;8.90;8.40;;;;;;;20.06;69.18;99772.56;10499501;28;20044;-73
2021/06/29 04:06:35;;;;;;;9.23;8.38;;;;;;;20.29;68.28;99783.31;10499725;28;20063;-72
2021/06/29 04:11:37;;;;;;;9.27;8.68;;;;;;;20.29;68.82;99799.34;10498733;28;20067;-72
2021/06/29 04:16:39;;;;;;;9.63;8.95;;;;;;;20.36;68.72;99805.88;10499098;28;20051;-71
2021/06/29 04:21:40;;;;;;;9.30;8.70;;;;;;;20.48;68.27;99806.81;10499527;28;20041;-71
2021/06/29 04:26:42;;;;;;;8.52;8.02;;;;;;;20.51;67.70;99798.59;10498943;28;20041;-72
2021/06/29 04:31:43;;;;;;;9.60;9.00;;;;;;;20.75;67.25;99791.31;10498293;28;20052;-71
2021/06/29 04:36:45;;;;;;;10.50;9.70;;;;;;;20.63;67.64;99782.47;10500491;28;20144;-72
2021/06/29 04:41:47;;;;;;;9.45;8.43;;;;;;;21.02;66.08;99782.97;10499435;28;20045;-72
2021/06/29 04:46:50;;;;;;;9.05;8.15;;;;;;;20.90;66.68;99779.47;10499664;28;20041;-72
2021/06/29 04:51:52;;;;;;;8.57;8.02;;;;;;;20.93;66.43;99783.69;10498785;28;20085;-72
2021/06/29 04:56:53;;;;;;;8.07;7.43;;;;;;;20.90;66.43;99767.94;10497901;28;20053;-72
2021/06/29 05:01:55;;;;;;;9.02;8.25;;;;;;;21.12;66.13;99777.78;10498338;28;20440;-72
2021/06/29 05:06:57;;;;;;;9.45;8.52;;;;;;;20.99;66.40;99777.03;10481242;28;20105;-72
2021/06/29 05:11:58;;;;;;;8.20;7.63;;;;;;;20.88;67.72;99770.69;10502359;28;20072;-71
2021/06/29 05:17:00;;;;;;;8.73;7.93;;;;;;;20.83;68.10;99772.03;10488117;28;20053;-72
2021/06/29 05:22:03;;;;;;;7.47;6.78;;;;;;;20.85;66.92;99762.94;10505779;28;20051;-72
2021/06/29 05:27:05;;;;;;;5.57;5.18;;;;;;;21.05;65.47;99752.50;10505879;28;20048;-73
2021/06/29 05:32:09;;;;;;;4.40;4.07;;;;;;;20.88;66.21;99748.47;10504537;28;20072;-72
2021/06/29 05:37:10;;;;;;;3.70;3.40;;;;;;;21.31;63.56;99748.59;10506197;28;20040;-73
2021/06/29 05:42:12;;;;;;;4.30;3.90;;;;;;;21.04;64.89;99743.63;10506370;28;20068;-72
2021/06/29 05:47:21;;;;;;;3.85;3.55;;;;;;;20.80;66.08;99733.03;10507357;28;20076;-73
2021/06/29 05:52:23;;;;;;;8.73;3.83;;;;;;;20.88;66.25;99730.63;10506802;28;20471;-72
2021/06/29 05:57:25;;;;;;;4.97;4.20;;;;;;;20.96;66.25;99724.69;10503055;28;20059;-72
2021/06/29 06:02:26;;;;;;;4.38;4.07;;;;;;;21.00;65.92;99710.09;10504363;28;20094;-71
2021/06/29 06:07:28;;;;;;;4.05;3.75;;;;;;;20.87;66.64;99706.72;10486276;28;20113;-72
2021/06/29 06:12:30;;;;;;;4.20;3.85;;;;;;;20.99;66.25;99711.09;10486555;28;20089;-71
2021/06/29 06:17:37;;;;;;;4.57;3.67;;;;;;;20.99;65.85;99711.09;10504188;28;20497;-71
2021/06/29 06:22:38;;;;;;;4.15;3.75;;;;;;;21.21;65.49;99710.19;10485444;28;20055;-72
2021/06/29 06:27:43;;;;;;;4.05;3.75;;;;;;;21.53;64.87;99722.78;10505407;28;20037;-72
2021/06/29 06:32:45;;;;;;;4.28;3.30;;;;;;;21.72;63.71;99722.97;10485563;28;20051;-72
2021/06/29 06:37:47;;;;;;;5.10;3.67;;;;;;;21.62;63.66;99725.56;10502750;28;20406;-71
2021/06/29 06:42:48;;;;;;;4.72;3.90;;;;;;;21.74;63.95;99721.03;10503426;28;20128;-71
2021/06/29 06:47:51;;;;;;;4.43;4.00;;;;;;;21.92;63.34;99714.13;10503440;28;20044;-72
2021/06/29 06:52:53;;;;;;;4.45;4.00;;;;;;;21.97;64.36;99721.78;10502883;28;20548;-72
2021/06/29 06:57:55;;;;;;;4.30;3.88;;;;;;;22.40;62.37;99712.78;10503077;28;20052;-72
2021/06/29 07:02:57;;;;;;;4.65;4.25;;;;;;;22.59;63.28;99726.28;10502019;28;20482;-72
2021/06/29 07:07:59;;;;;;;4.20;3.90;;;;;;;22.52;62.88;99710.88;10501779;28;20083;-72
2021/06/29 07:13:01;;;;;;;5.22;4.10;;;;;;;22.61;62.82;99710.09;10501709;28;20040;-72
2021/06/29 07:18:03;;;;;;;5.18;4.05;;;;;;;22.88;61.92;99702.28;10501737;28;20044;-71
2021/06/29 07:23:04;;;;;;;4.18;2.88;;;;;;;22.79;61.93;99702.25;10501844;28;20551;-72
2021/06/29 07:28:07;;;;;;;3.10;2.65;;;;;;;22.85;60.41;99707.09;10500974;28;20074;-71
2021/06/29 07:33:08;;;;;;;2.95;2.75;;;;;;;22.86;60.60;99732.91;10500241;28;20040;-71
2021/06/29 07:38:10;;;;;;;2.42;2.33;;;;;;;23.04;59.31;99757.28;10500235;28;20097;-71
2021/06/29 07:43:11;;;;;;;1.83;1.52;;;;;;;23.65;57.12;99738.41;10499811;28;20045;-71
2021/06/29 07:48:13;;;;;;;2.08;1.58;;;;;;;23.93;55.73;99734.03;10499683;28;20494;-71
2021/06/29 07:53:15;;;;;;;1.60;1.50;;;;;;;24.09;56.10;99731.66;10499367;28;20109;-71
2021/06/29 07:58:17;;;;;;;2.00;1.50;;;;;;;24.40;53.79;99735.03;10499062;28;20055;-72
2021/06/29 08:03:19;;;;;;;3.13;1.30;;;;;;;25.00;52.94;99736.53;10499025;28;20049;-71
2021/06/29 08:08:22;;;;;;;2.20;1.30;;;;;;;25.27;52.75;99733.03;10500506;28;20067;-72
2021/06/29 08:13:24;;;;;;;1.63;1.33;;;;;;;25.55;51.19;99728.47;10497644;28;20552;-72
2021/06/29 08:18:28;;;;;;;1.40;1.30;;;;;;;25.39;51.83;99734.50;10499593;28;20106;-71
2021/06/29 08:23:30;;;;;;;1.90;1.08;;;;;;;26.33;49.74;99729.53;10499788;28;20044;-71
2021/06/29 08:28:36;;;;;;;2.00;1.33;;;;;;;26.81;48.27;99730.88;10499425;28;20044;-71
2021/06/29 08:33:38;;;;;;;1.95;1.20;;;;;;;26.49;50.06;99730.69;10498765;28;20093;-72
2021/06/29 08:38:40;;;;;;;3.30;1.33;;;;;;;26.51;49.46;99732.19;10497628;28;20044;-71
2021/06/29 08:43:42;;;;;;;1.40;1.30;;;;;;;26.40;51.06;99722.50;10499969;28;20037;-71
2021/06/29 08:48:45;;;;;;;2.55;1.30;;;;;;;26.26;49.95;99716.84;10507220;28;20056;-71
2021/06/29 08:53:46;;;;;;;1.98;1.15;;;;;;;27.50;46.78;99709.25;10508482;28;20044;-71
2021/06/29 08:58:48;;;;;;;1.88;1.30;;;;;;;27.30;48.80;99706.81;10507625;28;20056;-72
2021/06/29 09:03:51;;;;;;;1.50;1.40;;;;;;;26.74;49.54;99697.47;10507165;28;20039;-71
2021/06/29 09:08:53;;;;;;;2.35;1.73;;;;;;;26.92;50.50;99686.59;10506699;28;20418;-71
2021/06/29 09:14:04;;;;;;;2.25;1.60;;;;;;;26.74;49.84;99681.31;10488448;28;20048;-70
2021/06/29 09:19:06;;;;;;;2.65;1.58;;;;;;;27.01;48.57;99687.50;10505749;28;20055;-71
2021/06/29 09:24:07;;;;;;;3.25;1.40;;;;;;;27.01;49.33;99677.53;10506079;28;20040;-70
2021/06/29 09:29:09;;;;;;;3.08;1.50;;;;;;;26.84;49.71;99681.19;10504851;28;20079;-71
2021/06/29 09:34:11;;;;;;;2.13;1.52;;;;;;;27.38;48.53;99669.06;10504559;28;20043;-71
2021/06/29 09:39:14;;;;;;;3.40;1.50;;;;;;;27.02;48.81;99671.13;10504485;28;20560;-71
2021/06/29 09:44:20;;;;;;;1.40;1.30;;;;;;;26.90;49.55;99665.19;10504964;28;20402;-71
2021/06/29 09:49:27;;;;;;;1.95;1.77;;;;;;;27.54;47.47;99652.06;10504311;28;20051;-70
2021/06/29 09:54:35;;;;;;;3.22;1.50;;;;;;;28.04;46.55;99648.38;10504889;28;20047;-71
2021/06/29 09:59:42;;;;;;;3.47;1.95;;;;;;;27.99;47.12;99652.59;10503191;28;20048;-70
2021/06/29 10:04:44;;;;;;;4.20;2.28;;;;;;;28.84;46.22;99653.75;10504437;28;20040;-71
2021/06/29 10:10:14;;;;;;;3.17;1.92;;;;;;;28.48;47.22;99648.00;10504055;28;20110;-70
2021/06/29 10:15:16;;;;;;;2.88;1.70;;;;;;;28.35;46.43;99635.00;10504203;28;20470;-70
2021/06/29 10:20:26;;;;;;;2.25;1.80;;;;;;;27.84;47.74;99623.56;10485581;28;20106;-71
2021/06/29 10:25:28;;;;;;;1.92;1.60;;;;;;;28.30;48.31;99618.44;10486298;28;20053;-71
2021/06/29 10:30:29;;;;;;;2.08;1.88;;;;;;;28.54;46.57;99619.41;10503122;28;20105;-71
2021/06/29 10:35:31;;;;;;;1.95;1.45;;;;;;;27.77;48.85;99603.66;10502976;28;20421;-71
2021/06/29 10:40:33;;;;;;;3.17;1.70;;;;;;;27.27;49.78;99601.06;10503146;28;20052;-71
2021/06/29 10:45:37;;;;;;;1.92;1.73;;;;;;;27.76;49.10;99584.91;10502820;28;20045;-70
2021/06/29 10:50:39;;;;;;;1.83;1.73;;;;;;;28.17;49.42;99585.69;10502681;28;20406;-70
2021/06/29 10:55:47;;;;;;;1.67;1.58;;;;;;;28.69;46.24;99581.63;10502505;28;20056;-71
2021/06/29 11:00:48;;;;;;;2.10;1.80;;;;;;;28.84;46.18;99588.84;10484056;28;20048;-71
2021/06/29 11:06:01;;;;;;;2.78;1.80;;;;;;;29.28;46.09;99587.44;10502549;28;20045;-71
2021/06/29 11:11:09;;;;;;;2.58;1.92;;;;;;;29.05;45.43;99582.84;10483145;28;20040;-70
2021/06/29 11:16:11;;;;;;;2.78;2.00;;;;;;;29.70;44.10;99580.69;10502802;28;20049;-70
2021/06/29 11:21:18;;;;;;;1.73;1.63;;;;;;;29.10;44.93;99563.38;10485009;28;20037;-71
2021/06/29 11:26:20;;;;;;;3.60;1.70;;;;;;;29.66;46.20;99558.53;10501781;28;20052;-71
2021/06/29 11:31:38;;;;;;;2.08;1.80;;;;;;;29.46;45.79;99552.75;10501250;28;20051;-71
2021/06/29 11:37:00;;;;;;;2.20;2.00;;;;;;;29.66;45.64;99553.09;10500607;28;20084;-70
2021/06/29 11:42:31;;;;;;;2.10;1.60;;;;;;;29.34;46.58;99544.22;10482816;28;20117;-71
2021/06/29 11:47:38;;;;;;;2.22;1.60;;;;;;;28.66;47.13;99542.28;10469334;28;20064;-71
2021/06/29 11:52:42;;;;;;;2.10;1.90;;;;;;;28.90;48.37;99522.34;10499746;28;20123;-70
2021/06/29 11:57:52;;;;;;;1.70;1.60;;;;;;;28.80;47.28;99514.47;10482325;28;20525;-70
2021/06/29 12:02:56;;;;;;;2.97;2.17;;;;;;;28.98;47.02;99510.69;10501706;28;20102;-70
2021/06/29 12:08:02;;;;;;;2.00;1.73;;;;;;;28.69;47.43;99500.50;10499558;28;20494;-70
2021/06/29 12:13:05;;;;;;;2.55;1.88;;;;;;;27.71;49.71;99498.97;10500026;28;20045;-70
2021/06/29 12:18:11;;;;;;;2.58;1.80;;;;;;;27.78;49.28;99509.97;10498955;28;20040;-70
2021/06/29 12:23:18;;;;;;;2.25;1.30;;;;;;;27.36;51.71;99511.03;10499175;28;20086;-71
2021/06/29 12:28:22;;;;;;;1.98;1.50;;;;;;;27.20;51.64;99500.22;10500403;28;20036;-71
2021/06/29 12:33:32;;;;;;;4.47;1.90;;;;;;;26.64;52.42;99486.47;10498853;28;20459;-71
2021/06/29 12:38:40;;;;;;;2.67;1.83;;;;;;;26.59;56.14;99492.34;10499676;28;20051;-71
2021/06/29 12:43:44;;;;;;;2.38;1.67;;;;;;;25.98;57.14;99487.19;10499184;28;20287;-72
2021/06/29 12:49:17;;;;;;;2.20;1.95;;;;;;;25.88;58.38;99477.41;10495320;28;20048;-71
2021/06/29 12:54:21;;;;;;;1.70;1.60;;;;;;;25.90;56.07;99488.03;10493807;28;20119;-71
2021/06/29 12:59:27;;;;;;;1.73;1.63;;;;;;;25.82;57.59;99480.75;10494757;28;20044;-71
2021/06/29 13:04:45;;;;;;;2.88;1.60;;;;;;;25.63;56.35;99494.38;10498577;28;20047;-71
2021/06/29 13:09:47;;;;;;;3.13;1.80;;;;;;;25.34;56.91;99487.44;10500271;28;20052;-71
2021/06/29 13:15:01;;;;;;;3.60;1.77;;;;;;;25.00;57.35;99483.75;10500740;28;20383;-72
2021/06/29 13:20:06;;;;;;;2.80;1.80;;;;;;;24.96;57.51;99477.00;10482174;28;20456;-72
2021/06/29 13:25:08;;;;;;;2.50;2.03;;;;;;;24.81;57.61;99479.41;10500188;28;20517;-73
2021/06/29 13:30:11;;;;;;;4.05;1.90;;;;;;;24.78;59.57;99467.09;10499660;28;20071;-73
2021/06/29 13:35:15;;;;;;;2.30;2.10;;;;;;;24.62;59.91;99473.19;10507413;28;20089;-73
2021/06/29 13:40:28;;;;;;;2.20;1.83;;;;;;;24.25;63.01;99462.47;10510951;28;20052;-72
2021/06/29 13:45:38;;;;;;;2.95;1.80;;;;;;;24.28;61.62;99458.66;10507757;28;20044;-70
2021/06/29 13:50:43;;;;;;;2.78;2.47;;;;;;;24.32;62.88;99460.03;10507278;28;20102;-72
2021/06/29 13:55:48;;;;;;;3.15;2.38;;;;;;;24.48;60.89;99448.66;10507273;28;20116;-72
2021/06/29 14:00:54;;;;;;;5.30;2.40;;;;;;;24.18;61.63;99429.19;10504713;28;20051;-71
2021/06/29 14:06:15;;;;;;;2.08;1.88;;;;;;;24.24;60.87;99414.28;10487348;28;20052;-71
2021/06/29 14:11:20;;;;;;;2.25;2.08;;;;;;;24.68;58.49;99412.59;10504979;28;20052;-71
2021/06/29 14:16:25;;;;;;;2.53;2.22;;;;;;;25.35;58.22;99402.22;10504914;28;20094;-70
2021/06/29 14:21:29;;;;;;;2.47;2.07;;;;;;;25.95;55.80;99383.38;10503588;28;20082;-72
2021/06/29 14:26:32;;;;;;;92.65;32.88;;;;;;;26.27;55.44;99379.06;10487647;28;20051;-71
2021/06/29 14:31:33;;;;;;;4.05;3.55;;;;;;;26.52;53.55;99379.97;10504944;28;20056;-71
2021/06/29 14:36:37;;;;;;;1.95;1.77;;;;;;;26.19;54.31;99373.66;10504916;28;20395;-72
2021/06/29 14:41:40;;;;;;;3.08;2.13;;;;;;;26.76;52.63;99363.81;10485839;28;20060;-73
2021/06/29 14:46:41;;;;;;;3.17;2.15;;;;;;;26.95;51.54;99361.78;10504079;28;20057;-73
2021/06/29 14:51:43;;;;;;;1.95;1.80;;;;;;;27.25;51.54;99361.09;10504572;28;20041;-72
2021/06/29 14:56:45;;;;;;;4.15;2.63;;;;;;;27.40;51.51;99361.22;10485873;28;20044;-72
2021/06/29 15:01:48;;;;;;;2.28;2.08;;;;;;;27.91;49.99;99359.03;10504270;28;20036;-73
2021/06/29 15:06:49;;;;;;;2.03;1.92;;;;;;;27.82;50.04;99362.78;10485768;28;20059;-72
2021/06/29 15:11:51;;;;;;;2.50;2.30;;;;;;;27.36;50.44;99341.84;10484467;28;20094;-73
2021/06/29 15:16:52;;;;;;;3.28;2.38;;;;;;;27.21;51.19;99340.84;10505510;28;20083;-74
2021/06/29 15:21:54;;;;;;;2.92;2.30;;;;;;;27.71;50.65;99328.84;10501371;28;20391;-72
2021/06/29 15:26:55;;;;;;;7.78;2.78;;;;;;;28.37;50.04;99318.56;10502782;28;20044;-71
2021/06/29 15:31:59;;;;;;;3.00;2.80;;;;;;;27.88;49.84;99321.56;10510845;23;20045;-70
2021/06/29 15:37:01;;;;;;;3.60;2.85;;;;;;;27.24;51.05;99313.53;10454995;28;20044;-70
2021/06/29 15:42:07;;;;;;;2.88;2.67;;;;;;;27.48;50.27;99299.09;10496179;28;20041;-71
2021/06/29 15:47:09;;;;;;;4.25;3.22;;;;;;;27.06;50.65;99311.03;10495504;28;20040;-71
2021/06/29 15:52:11;;;;;;;3.47;3.25;;;;;;;26.50;52.89;99296.59;10498285;28;20048;-70
2021/06/29 15:57:12;;;;;;;3.00;2.78;;;;;;;26.47;52.48;99290.69;10497838;28;20490;-70
2021/06/29 16:02:14;;;;;;;4.32;3.53;;;;;;;26.26;53.44;99281.25;10497964;28;20043;-72
2021/06/29 16:07:16;;;;;;;4.18;3.85;;;;;;;26.05;52.58;99280.88;10496876;28;20114;-71
2021/06/29 16:12:17;;;;;;;3.97;3.70;;;;;;;25.58;54.98;99292.16;10497837;28;20096;-71
2021/06/29 16:17:22;;;;;;;3.60;3.40;;;;;;;26.12;54.26;99287.31;10498337;28;20110;-71
2021/06/29 16:22:24;;;;;;;3.65;3.40;;;;;;;25.96;54.67;99285.41;10497779;28;20087;-70
2021/06/29 16:27:26;;;;;;;4.38;3.80;;;;;;;25.89;55.29;99295.97;10497799;28;20052;-71
2021/06/29 16:32:27;;;;;;;3.50;3.30;;;;;;;25.57;55.88;99291.31;10498232;28;20229;-70
2021/06/29 16:37:30;;;;;;;3.47;3.28;;;;;;;25.79;55.34;99278.31;10498505;28;20048;-71
2021/06/29 16:42:31;;;;;;;3.60;3.33;;;;;;;25.58;56.17;99287.63;10498536;28;20429;-71
2021/06/29 16:47:34;;;;;;;4.70;3.88;;;;;;;25.87;55.30;99294.47;10479459;28;20469;-71
2021/06/29 16:52:36;;;;;;;4.38;4.03;;;;;;;25.55;56.65;99306.81;10496852;28;20045;-71
2021/06/29 16:57:38;;;;;;;4.07;3.88;;;;;;;25.17;58.23;99283.91;10495738;28;20410;-71
2021/06/29 17:02:39;;;;;;;5.88;3.90;;;;;;;25.39;58.72;99282.50;10496849;28;20087;-71
2021/06/29 17:07:41;;;;;;;6.20;3.70;;;;;;;25.07;58.47;99278.63;10483324;28;20413;-72
2021/06/29 17:12:42;;;;;;;11.90;3.63;;;;;;;24.99;60.17;99280.44;10505650;28;20041;-72
2021/06/29 17:17:44;;;;;;;4.82;4.43;;;;;;;24.99;63.67;99272.38;10486385;28;20048;-71
2021/06/29 17:22:46;;;;;;;4.85;4.45;;;;;;;24.74;64.22;99248.00;10504646;28;20440;-71
2021/06/29 17:27:47;;;;;;;4.88;4.55;;;;;;;24.75;65.76;99256.94;10504502;28;20051;-71
2021/06/29 17:32:49;;;;;;;4.97;4.68;;;;;;;24.96;63.32;99235.88;10504122;28;20044;-71
2021/06/29 17:37:51;;;;;;;4.35;4.05;;;;;;;24.75;63.69;99265.84;10487091;28;20048;-71
2021/06/29 17:42:53;;;;;;;4.07;3.85;;;;;;;24.79;63.50;99266.34;10502590;28;20061;-71
2021/06/29 17:47:54;;;;;;;4.97;4.47;;;;;;;24.69;64.17;99268.31;10503748;28;20059;-71
2021/06/29 17:52:56;;;;;;;4.60;4.28;;;;;;;24.48;64.36;99291.00;10503542;28;20036;-71
2021/06/29 17:57:58;;;;;;;4.35;3.95;;;;;;;24.14;66.81;99291.69;10505048;28;20054;-71
2021/06/29 18:03:00;;;;;;;4.35;4.05;;;;;;;23.96;67.99;99290.84;10504365;28;20045;-71
2021/06/29 18:08:01;;;;;;;4.75;4.25;;;;;;;23.85;68.46;99278.47;10504432;28;20405;-71
2021/06/29 18:13:03;;;;;;;3.72;3.50;;;;;;;23.63;69.70;99258.25;10505504;28;20036;-71
2021/06/29 18:18:05;;;;;;;5.78;5.28;;;;;;;23.50;69.34;99249.72;10502784;28;20495;-70
2021/06/29 18:23:07;;;;;;;9.13;4.78;;;;;;;23.33;69.63;99246.00;10503820;28;20585;-71
2021/06/29 18:28:08;;;;;;;5.82;5.22;;;;;;;23.46;69.28;99234.91;10503272;28;20048;-71
2021/06/29 18:33:11;;;;;;;5.35;5.05;;;;;;;23.52;67.92;99223.59;10502838;28;20090;-70
2021/06/29 18:38:12;;;;;;;5.18;4.78;;;;;;;23.62;67.05;99232.41;10500496;28;20084;-71
2021/06/29 18:43:16;;;;;;;5.15;4.75;;;;;;;23.38;67.84;99230.31;10503368;28;20048;-72
2021/06/29 18:48:18;;;;;;;5.78;5.22;;;;;;;23.20;68.72;99248.19;10485019;28;20048;-71
2021/06/29 18:53:19;;;;;;;6.20;4.88;;;;;;;23.26;68.76;99249.44;10504992;28;20044;-72
2021/06/29 18:58:21;;;;;;;4.78;4.45;;;;;;;23.25;68.12;99248.59;10503319;28;20056;-71
2021/06/29 19:03:23;;;;;;;4.80;4.40;;;;;;;23.17;68.54;99243.97;10485879;28;20044;-72
2021/06/29 19:08:24;;;;;;;5.70;5.30;;;;;;;23.04;68.98;99243.47;10502118;28;20410;-71
2021/06/29 19:13:26;;;;;;;5.53;5.07;;;;;;;23.03;69.16;99247.13;10501912;28;20487;-71
2021/06/29 19:18:28;;;;;;;5.22;4.70;;;;;;;22.92;70.00;99258.03;10501901;28;20041;-71
2021/06/29 19:23:30;;;;;;;5.55;5.25;;;;;;;22.80;70.68;99269.88;10501700;28;20090;-71
2021/06/29 19:28:31;;;;;;;5.30;5.00;;;;;;;22.82;70.49;99278.63;10501473;28;20122;-74
2021/06/29 19:33:33;;;;;;;5.25;4.95;;;;;;;22.61;70.97;99281.47;10500935;28;20123;-71
2021/06/29 19:38:35;;;;;;;5.28;4.90;;;;;;;22.53;71.17;99276.00;10501413;28;20048;-73
2021/06/29 19:43:37;;;;;;;5.88;5.47;;;;;;;22.63;70.61;99268.81;10500573;28;20036;-72
2021/06/29 19:48:38;;;;;;;5.70;5.30;;;;;;;22.35;72.24;99252.63;10500403;28;20050;-72
2021/06/29 19:53:42;;;;;;;6.05;5.63;;;;;;;22.13;73.43;99247.56;10483173;28;20094;-72
2021/06/29 19:58:44;;;;;;;6.20;5.90;;;;;;;22.07;72.94;99242.75;10500650;28;20502;-72
2021/06/29 20:03:46;;;;;;;5.85;5.45;;;;;;;22.41;70.57;99248.53;10500904;28;20409;-72
2021/06/29 20:08:47;;;;;;;6.55;6.20;;;;;;;22.16;71.70;99250.81;10501748;28;20032;-71
2021/06/29 20:13:49;;;;;;;7.28;6.78;;;;;;;21.99;72.61;99251.47;10500858;28;20048;-72
2021/06/29 20:18:51;;;;;;;7.00;6.50;;;;;;;22.24;71.69;99231.38;10500200;28;20466;-71
2021/06/29 20:23:52;;;;;;;7.35;6.80;;;;;;;21.89;73.01;99240.78;10500468;28;20476;-72
2021/06/29 20:28:54;;;;;;;6.45;6.05;;;;;;;21.97;72.90;99253.47;10499734;28;20098;-74
2021/06/29 20:34:06;;;;;;;6.05;5.65;;;;;;;22.01;72.52;99254.03;10499192;28;20110;-71
2021/06/29 20:39:08;;;;;;;6.20;5.70;;;;;;;22.05;72.66;99252.78;10498560;28;20098;-72
2021/06/29 20:44:10;;;;;;;7.32;6.63;;;;;;;22.09;72.48;99254.16;10497658;28;20418;-73
2021/06/29 20:49:13;;;;;;;9.00;5.57;;;;;;;22.04;72.02;99257.25;10498819;28;20047;-72
2021/06/29 20:54:14;;;;;;;6.10;5.70;;;;;;;21.92;72.12;99263.75;10499242;28;20383;-72
2021/06/29 20:59:25;;;;;;;6.07;5.63;;;;;;;22.06;70.18;99233.88;10498546;28;20052;-71
2021/06/29 21:04:26;;;;;;;5.40;5.00;;;;;;;22.04;69.85;99238.50;10480728;28;20123;-74
2021/06/29 21:09:28;;;;;;;5.35;5.05;;;;;;;21.82;70.40;99230.78;10498612;28;20048;-72
2021/06/29 21:14:29;;;;;;;3.28;2.92;;;;;;;21.83;65.82;99230.66;10480790;28;20485;-72
2021/06/29 21:19:36;;;;;;;6.78;3.33;;;;;;;21.73;67.19;99220.91;10465644;28;20044;-72
2021/06/29 21:24:43;;;;;;;3.88;3.58;;;;;;;21.85;67.48;99217.13;10499997;28;20032;-73
2021/06/29 21:29:50;;;;;;;4.63;4.20;;;;;;;21.75;70.02;99211.78;10499140;28;20052;-71
2021/06/29 21:34:56;;;;;;;4.00;3.70;;;;;;;21.66;70.96;99213.44;10486645;23;20044;-77
2021/06/29 21:40:04;;;;;;;4.70;4.30;;;;;;;21.55;72.93;99229.63;10483743;28;20048;-77
2021/06/29 21:45:12;;;;;;;8.80;5.80;;;;;;;21.27;75.28;99233.88;10498840;28;20029;-76
2021/06/29 21:50:19;;;;;;;13.98;7.60;;;;;;;20.81;75.93;99277.16;10480397;28;20051;-75
2021/06/29 21:55:26;;;;;;;12.95;6.30;;;;;;;19.91;79.19;99307.75;10503055;28;20041;-74
2021/06/29 22:00:33;;;;;;;13.88;10.30;;;;;;;19.49;83.39;99304.06;10505298;28;20048;-74
2021/06/29 22:05:40;;;;;;;9.27;8.48;;;;;;;19.47;84.13;99290.00;10505623;28;20040;-74
2021/06/29 22:10:46;;;;;;;;;;;;;;;19.58;84.45;99255.34;10487834;28;20052;-73
2021/06/29 22:15:55;;;;;;;12.85;11.73;;;;;;;19.47;88.14;99244.69;10505696;28;19927;-73
2021/06/29 22:21:04;;;;;;;11.50;10.70;;;;;;;19.64;87.14;99227.34;10504062;28;20040;-73
2021/06/29 22:26:10;;;;;;;14.18;13.07;;;;;;;19.73;87.70;99250.59;10505266;28;20185;-72
2021/06/29 22:31:17;;;;;;;;;;;;;;;19.70;89.28;99268.66;10505571;28;20044;-73
2021/06/29 22:36:23;;;;;;;;;;;;;;;19.78;89.32;99271.53;10487033;28;19920;-71
2021/06/29 22:41:30;;;;;;;10.48;9.73;;;;;;;20.04;86.06;99304.09;10503971;28;19927;-73
2021/06/29 22:46:36;;;;;;;;;;;;;;;19.95;85.24;99305.69;10504466;28;20075;-71
2021/06/29 22:51:42;;;;;;;;;;;;;;;19.76;85.50;99261.03;10503885;28;19920;-72
2021/06/29 22:56:49;;;;;;;;;;;;;;;19.73;83.49;99247.94;10503112;28;20392;-71
2021/06/29 23:01:55;;;;;;;;;;;;;;;19.55;84.46;99242.25;10503559;28;20320;-72
2021/06/29 23:07:04;;;;;;;8.00;7.50;;;;;;;19.40;85.95;99235.50;10502256;28;19928;-71
2021/06/29 23:12:11;;;;;;;8.38;7.88;;;;;;;19.51;85.25;99215.97;10502523;28;20493;-72
2021/06/29 23:17:18;;;;;;;10.13;9.35;;;;;;;19.54;85.83;99205.06;10502308;28;20054;-73
2021/06/29 23:22:25;;;;;;;11.48;10.40;;;;;;;19.48;86.80;99201.09;10501418;28;20056;-71
2021/06/29 23:27:31;;;;;;;12.10;11.10;;;;;;;19.42;87.71;99186.44;10500391;28;20040;-71
2021/06/29 23:32:38;;;;;;;10.77;10.00;;;;;;;19.53;87.27;99166.06;10498665;28;20040;-73
2021/06/29 23:37:39;;;;;;;8.75;8.25;;;;;;;19.55;87.03;99185.44;10499830;28;20063;-73